createdAt,value
2023-01-02T00:02:14.664Z,77.71
2023-01-02T00:04:44.065Z,77.72
2023-01-02T00:07:13.315Z,77.93
2023-01-02T00:09:42.785Z,77.89
2023-01-02T00:12:19.315Z,78.02
2023-01-02T00:14:48.551Z,78.23
2023-01-02T00:17:18.837Z,78.13
2023-01-02T00:19:48.251Z,78.22
2023-01-02T00:22:17.569Z,78.22
2023-01-02T00:24:46.828Z,78.11
2023-01-02T00:27:16.148Z,77.95
2023-01-02T00:29:45.393Z,77.89
2023-01-02T00:32:15.586Z,77.92
2023-01-02T00:34:45.043Z,78.04
2023-01-02T00:37:14.560Z,78.02
2023-01-02T00:39:44.307Z,78.00
2023-01-02T00:42:13.632Z,78.02
2023-01-02T00:44:42.950Z,77.93
2023-01-02T00:47:12.855Z,78.00
2023-01-02T00:49:42.803Z,78.14
2023-01-02T00:52:13.630Z,78.15
2023-01-02T00:54:42.899Z,78.20
2023-01-02T00:57:12.193Z,78.27
2023-01-02T00:59:41.969Z,78.29
2023-01-02T01:02:11.336Z,78.25
2023-01-02T01:04:41.010Z,78.29
2023-01-02T01:07:10.293Z,78.31
2023-01-02T01:09:39.629Z,78.38
2023-01-02T01:12:09.995Z,78.36
2023-01-02T01:14:42.614Z,78.52
2023-01-02T01:17:15.304Z,78.71
2023-01-02T01:19:44.632Z,78.75
2023-01-02T01:22:14.465Z,78.85
2023-01-02T01:24:43.698Z,78.79
2023-01-02T01:27:13.154Z,78.99
2023-01-02T01:29:42.540Z,79.15
2023-01-02T01:32:12.115Z,79.21
2023-01-02T01:34:41.619Z,79.29
2023-01-02T01:37:15.198Z,79.45
2023-01-02T01:39:46.852Z,79.64
2023-01-02T01:42:16.802Z,79.80
2023-01-02T01:44:48.398Z,79.84
2023-01-02T01:47:26.243Z,79.97
2023-01-02T01:50:05.596Z,80.18
2023-01-02T01:52:40.379Z,80.39
2023-01-02T01:55:15.618Z,80.62
2023-01-02T01:57:49.723Z,80.67
2023-01-02T02:00:19.703Z,80.69
2023-01-02T02:02:54.052Z,80.65
2023-01-02T02:05:28.857Z,80.70
2023-01-02T02:08:05.319Z,80.93
2023-01-02T02:10:34.869Z,81.12
2023-01-02T02:13:04.318Z,81.18
2023-01-02T02:15:44.673Z,81.36
2023-01-02T02:18:26.070Z,81.45
2023-01-02T02:21:00.878Z,81.67
2023-01-02T02:24:16.680Z,81.91
2023-01-02T02:27:07.841Z,82.00
2023-01-02T02:30:08.169Z,82.17
2023-01-02T02:32:54.193Z,82.36
2023-01-02T02:35:35.537Z,82.42
2023-01-02T02:38:12.100Z,82.60
2023-01-02T02:40:53.320Z,82.80
2023-01-02T02:43:30.534Z,82.83
2023-01-02T02:46:09.637Z,83.12
2023-01-02T02:48:48.416Z,83.10
2023-01-02T02:51:24.572Z,83.20
2023-01-02T02:54:00.599Z,83.22
2023-01-02T02:56:32.526Z,83.38
2023-01-02T02:59:05.160Z,83.39
2023-01-02T03:01:35.866Z,83.46
2023-01-02T03:04:16.074Z,83.37
2023-01-02T03:07:07.380Z,83.56
2023-01-02T03:09:49.845Z,83.61
2023-01-02T03:12:31.103Z,83.78
2023-01-02T03:15:09.072Z,83.90
2023-01-02T03:17:51.267Z,83.99
2023-01-02T03:20:23.876Z,84.17
2023-01-02T03:22:58.214Z,84.24
2023-01-02T03:25:28.673Z,84.33
2023-01-02T03:28:03.440Z,84.51
2023-01-02T03:30:36.927Z,84.64
2023-01-02T03:33:11.227Z,84.82
2023-01-02T03:35:44.864Z,84.82
2023-01-02T03:38:19.332Z,84.99
2023-01-02T03:40:54.766Z,85.12
2023-01-02T03:43:29.254Z,85.23
2023-01-02T03:46:06.621Z,85.30
2023-01-02T03:48:42.947Z,85.49
2023-01-02T03:51:13.420Z,85.50
2023-01-02T03:53:43.616Z,85.58
2023-01-02T03:56:45.180Z,85.56
2023-01-02T03:59:25.894Z,85.47
2023-01-02T04:02:01.150Z,85.50
2023-01-02T04:04:38.562Z,85.51
2023-01-02T04:07:28.238Z,85.55
2023-01-02T04:09:59.849Z,85.51
2023-01-02T04:12:37.387Z,85.54
2023-01-02T04:15:11.744Z,85.59
2023-01-02T04:17:45.446Z,85.66
2023-01-02T04:20:20.891Z,85.70
2023-01-02T04:23:09.631Z,85.67
2023-01-02T04:25:43.213Z,85.73
2023-01-02T04:28:17.581Z,85.67
2023-01-02T04:30:52.991Z,85.71
2023-01-02T04:33:28.220Z,85.72
2023-01-02T04:36:09.001Z,85.73
2023-01-02T04:38:38.483Z,85.69
2023-01-02T04:41:09.722Z,85.72
2023-01-02T04:43:38.992Z,85.65
2023-01-02T04:46:08.597Z,85.59
2023-01-02T04:48:38.011Z,85.57
2023-01-02T04:51:07.553Z,85.58
2023-01-02T04:53:36.808Z,85.48
2023-01-02T04:56:27.163Z,85.52
2023-01-02T04:59:22.515Z,85.37
2023-01-02T05:04:37.384Z,85.65
2023-01-02T05:07:06.701Z,85.75
2023-01-02T05:09:37.274Z,85.77
2023-01-02T05:12:19.800Z,85.86
2023-01-02T05:15:09.096Z,85.85
2023-01-02T05:17:39.906Z,86.03
2023-01-02T05:20:12.734Z,86.10
2023-01-02T05:23:01.807Z,86.15
2023-01-02T05:25:36.742Z,86.15
2023-01-02T05:28:09.061Z,86.20
2023-01-02T05:30:42.160Z,86.46
2023-01-02T05:33:11.435Z,86.51
2023-01-02T05:36:09.756Z,86.49
2023-01-02T05:38:42.031Z,86.62
2023-01-02T05:41:11.331Z,86.85
2023-01-02T05:44:28.758Z,86.76
2023-01-02T05:47:01.182Z,86.88
2023-01-02T05:49:30.919Z,86.99
2023-01-02T05:52:00.505Z,87.09
2023-01-02T05:54:30.263Z,87.08
2023-01-02T05:56:59.611Z,87.27
2023-01-02T05:59:29.019Z,87.19
2023-01-02T06:01:59.373Z,87.19
2023-01-02T06:04:28.943Z,87.16
2023-01-02T06:06:58.210Z,87.24
2023-01-02T06:09:27.574Z,87.21
2023-01-02T06:11:56.852Z,87.26
2023-01-02T06:14:26.895Z,87.21
2023-01-02T06:16:56.231Z,87.40
2023-01-02T06:19:25.513Z,87.39
2023-01-02T06:21:58.507Z,87.21
2023-01-02T06:24:29.568Z,87.23
2023-01-02T06:26:59.251Z,87.24
2023-01-02T06:29:36.477Z,87.07
2023-01-02T06:32:09.775Z,87.07
2023-01-02T06:34:40.627Z,87.05
2023-01-02T06:37:10.507Z,87.20
2023-01-02T06:39:40.293Z,87.28
2023-01-02T06:42:09.555Z,87.30
2023-01-02T06:44:38.902Z,87.35
2023-01-02T06:47:09.165Z,87.30
2023-01-02T06:49:38.368Z,87.19
2023-01-02T06:52:07.589Z,87.21
2023-01-02T06:54:36.811Z,87.10
2023-01-02T06:57:07.808Z,87.09
2023-01-02T06:59:37.381Z,87.17
2023-01-02T07:02:06.853Z,86.96
2023-01-02T07:04:36.583Z,86.97
2023-01-02T07:07:05.921Z,86.96
2023-01-02T07:09:35.325Z,86.73
2023-01-02T07:12:05.586Z,86.62
2023-01-02T07:14:37.010Z,86.92
2023-01-02T07:17:06.934Z,86.77
2023-01-02T07:19:36.388Z,86.78
2023-01-02T07:22:05.708Z,86.87
2023-01-02T07:24:34.899Z,86.88
2023-01-02T07:27:04.393Z,86.83
2023-01-02T07:29:33.757Z,86.93
2023-01-02T07:32:13.505Z,87.09
2023-01-02T07:34:42.893Z,86.98
2023-01-02T07:37:12.144Z,87.00
2023-01-02T07:39:41.602Z,87.21
2023-01-02T07:42:10.878Z,87.06
2023-01-02T07:44:40.197Z,86.97
2023-01-02T07:47:09.685Z,86.95
2023-01-02T07:49:38.998Z,86.88
2023-01-02T07:52:10.993Z,86.86
2023-01-02T07:54:40.300Z,86.72
2023-01-02T07:57:09.579Z,86.75
2023-01-02T07:59:39.523Z,86.89
2023-01-02T08:02:13.765Z,86.79
2023-01-02T08:04:43.493Z,86.82
2023-01-02T08:07:12.878Z,86.65
2023-01-02T08:09:42.427Z,86.93
2023-01-02T08:12:12.327Z,86.99
2023-01-02T08:14:41.729Z,87.12
2023-01-02T08:17:11.238Z,87.00
2023-01-02T08:19:40.538Z,87.09
2023-01-02T08:22:09.923Z,86.99
2023-01-02T08:24:39.346Z,87.15
2023-01-02T08:27:10.828Z,87.13
2023-01-02T08:29:40.961Z,87.03
2023-01-02T08:32:10.214Z,87.08
2023-01-02T08:34:39.480Z,86.87
2023-01-02T08:37:08.845Z,86.88
2023-01-02T08:39:38.111Z,86.81
2023-01-02T08:42:08.611Z,86.93
2023-01-02T08:44:37.896Z,86.77
2023-01-02T08:47:07.289Z,86.81
2023-01-02T08:49:36.761Z,86.71
2023-01-02T08:52:06.824Z,86.73
2023-01-02T08:54:36.708Z,86.53
2023-01-02T08:57:06.188Z,86.51
2023-01-02T08:59:35.488Z,86.45
2023-01-02T09:02:07.123Z,86.42
2023-01-02T09:04:36.680Z,86.43
2023-01-02T09:07:06.428Z,86.35
2023-01-02T09:09:36.044Z,86.23
2023-01-02T09:12:06.223Z,86.23
2023-01-02T09:14:35.634Z,86.02
2023-01-02T09:17:05.149Z,86.18
2023-01-02T09:19:39.011Z,86.14
2023-01-02T09:22:09.528Z,85.95
2023-01-02T09:24:39.272Z,85.87
2023-01-02T09:27:08.536Z,85.79
2023-01-02T09:29:40.369Z,85.68
2023-01-02T09:32:10.360Z,85.58
2023-01-02T09:34:42.117Z,85.44
2023-01-02T09:37:11.866Z,85.46
2023-01-02T09:39:41.508Z,85.44
2023-01-02T09:42:17.081Z,85.32
2023-01-02T09:44:49.789Z,85.27
2023-01-02T09:47:21.749Z,85.21
2023-01-02T09:49:57.634Z,85.24
2023-01-02T09:52:30.158Z,84.97
2023-01-02T09:55:00.092Z,84.90
2023-01-02T09:57:41.613Z,84.85
2023-01-02T10:00:18.975Z,84.66
2023-01-02T10:03:07.377Z,84.56
2023-01-02T10:06:11.562Z,84.49
2023-01-02T10:08:53.243Z,84.51
2023-01-02T10:11:34.045Z,84.32
2023-01-02T10:14:20.534Z,84.28
2023-01-02T10:16:54.515Z,84.10
2023-01-02T10:19:36.088Z,84.07
2023-01-02T10:22:08.157Z,84.10
2023-01-02T10:27:38.251Z,84.01
2023-01-02T10:30:19.056Z,83.95
2023-01-02T10:32:55.438Z,83.81
2023-01-02T10:35:37.975Z,83.79
2023-01-02T10:38:10.291Z,83.64
2023-01-02T10:40:47.379Z,83.54
2023-01-02T10:43:18.394Z,83.49
2023-01-02T10:45:50.243Z,83.28
2023-01-02T10:48:23.423Z,83.12
2023-01-02T10:50:56.457Z,83.05
2023-01-02T10:53:32.616Z,82.89
2023-01-02T10:56:18.217Z,82.82
2023-01-02T10:58:51.999Z,82.80
2023-01-02T11:01:22.874Z,82.73
2023-01-02T11:04:10.077Z,82.55
2023-01-02T11:06:52.267Z,82.29
2023-01-02T11:09:23.908Z,82.26
2023-01-02T11:11:54.822Z,82.18
2023-01-02T11:14:29.283Z,81.96
2023-01-02T11:17:05.165Z,81.75
2023-01-02T11:19:40.915Z,81.58
2023-01-02T11:22:16.842Z,81.63
2023-01-02T11:24:59.575Z,81.33
2023-01-02T11:27:32.531Z,81.28
2023-01-02T11:30:04.106Z,81.05
2023-01-02T11:32:39.460Z,80.90
2023-01-02T11:35:35.043Z,80.87
2023-01-02T11:38:12.684Z,80.73
2023-01-02T11:40:53.060Z,80.62
2023-01-02T11:43:45.288Z,80.44
2023-01-02T11:46:23.731Z,80.37
2023-01-02T11:48:58.347Z,80.28
2023-01-02T11:51:29.780Z,80.22
2023-01-02T11:54:03.469Z,80.17
2023-01-02T11:56:35.863Z,80.00
2023-01-02T11:59:12.719Z,80.03
2023-01-02T12:01:51.430Z,80.12
2023-01-02T12:04:22.202Z,80.31
2023-01-02T12:07:06.239Z,80.12
2023-01-02T12:09:45.127Z,80.25
2023-01-02T12:12:29.566Z,80.32
2023-01-02T12:15:24.549Z,80.22
2023-01-02T12:18:03.168Z,80.11
2023-01-02T12:20:42.629Z,80.05
2023-01-02T12:23:30.834Z,79.87
2023-01-02T12:26:11.431Z,79.90
2023-01-02T12:28:57.393Z,79.84
2023-01-02T12:31:46.804Z,79.70
2023-01-02T12:34:37.102Z,79.49
2023-01-02T12:37:27.519Z,79.57
2023-01-02T12:40:27.673Z,79.50
2023-01-02T12:43:28.723Z,79.38
2023-01-02T12:46:11.711Z,79.51
2023-01-02T12:48:58.679Z,79.37
2023-01-02T12:51:33.540Z,79.33
2023-01-02T12:54:20.401Z,79.42
2023-01-02T12:57:00.588Z,79.38
2023-01-02T12:59:46.325Z,79.36
2023-01-02T13:02:46.320Z,79.21
2023-01-02T13:05:20.417Z,79.16
2023-01-02T13:07:57.382Z,79.10
2023-01-02T13:10:29.298Z,79.04
2023-01-02T13:13:03.150Z,79.10
2023-01-02T13:15:44.689Z,79.11
2023-01-02T13:18:23.884Z,79.08
2023-01-02T13:21:03.955Z,78.99
2023-01-02T13:23:39.890Z,78.81
2023-01-02T13:26:13.517Z,78.92
2023-01-02T13:28:57.124Z,78.98
2023-01-02T13:31:45.965Z,78.81
2023-01-02T13:34:22.844Z,78.82
2023-01-02T13:37:00.532Z,78.67
2023-01-02T13:39:50.819Z,78.68
2023-01-02T13:42:45.323Z,78.70
2023-01-02T13:45:18.195Z,78.74
2023-01-02T13:47:52.219Z,78.66
2023-01-02T13:50:25.684Z,78.66
2023-01-02T13:53:16.211Z,78.51
2023-01-02T13:56:03.955Z,78.46
2023-01-02T13:58:44.554Z,78.56
2023-01-02T14:01:42.479Z,78.61
2023-01-02T14:04:53.017Z,78.61
2023-01-02T14:07:43.299Z,78.57
2023-01-02T14:10:45.035Z,78.70
2023-01-02T14:13:37.492Z,78.69
2023-01-02T14:16:27.529Z,78.69
2023-01-02T14:19:20.147Z,78.66
2023-01-02T14:22:03.035Z,78.68
2023-01-02T14:24:35.517Z,78.74
2023-01-02T14:27:16.539Z,78.50
2023-01-02T14:29:53.166Z,78.57
2023-01-02T14:32:35.646Z,78.50
2023-01-02T14:35:22.093Z,78.58
2023-01-02T14:37:53.260Z,78.64
2023-01-02T14:40:37.571Z,78.61
2023-01-02T14:43:32.370Z,78.71
2023-01-02T14:46:17.969Z,78.81
2023-01-02T14:48:54.555Z,78.78
2023-01-02T14:51:32.232Z,78.80
2023-01-02T14:54:13.300Z,78.73
2023-01-02T14:56:45.607Z,78.81
2023-01-02T14:59:21.518Z,78.83
2023-01-02T15:01:55.195Z,78.79
2023-01-02T15:04:38.126Z,78.86
2023-01-02T15:07:17.923Z,78.89
2023-01-02T15:09:51.671Z,78.93
2023-01-02T15:12:43.711Z,78.91
2023-01-02T15:15:14.867Z,78.90
2023-01-02T15:17:46.907Z,79.03
2023-01-02T15:20:21.830Z,78.93
2023-01-02T15:22:55.119Z,78.96
2023-01-02T15:25:36.702Z,78.91
2023-01-02T15:28:07.696Z,78.99
2023-01-02T15:30:39.377Z,78.90
2023-01-02T15:33:27.789Z,78.81
2023-01-02T15:36:02.452Z,79.03
2023-01-02T15:38:33.282Z,79.03
2023-01-02T15:41:04.294Z,78.91
2023-01-02T15:43:53.731Z,79.04
2023-01-02T15:46:23.360Z,79.18
2023-01-02T15:48:54.363Z,79.02
2023-01-02T15:51:41.355Z,78.99
2023-01-02T15:54:14.880Z,79.16
2023-01-02T15:56:50.886Z,79.17
2023-01-02T15:59:27.456Z,78.97
2023-01-02T16:01:57.446Z,78.99
2023-01-02T16:04:30.866Z,79.01
2023-01-02T16:07:14.087Z,78.99
2023-01-02T16:09:52.734Z,78.87
2023-01-02T16:12:24.812Z,78.85
2023-01-02T16:14:58.523Z,78.66
2023-01-02T16:17:29.830Z,78.59
2023-01-02T16:20:01.572Z,78.60
2023-01-02T16:22:42.274Z,78.59
2023-01-02T16:25:20.212Z,78.51
2023-01-02T16:27:54.632Z,78.30
2023-01-02T16:30:38.189Z,78.32
2023-01-02T16:33:22.365Z,78.28
2023-01-02T16:36:00.911Z,78.23
2023-01-02T16:38:32.474Z,78.16
2023-01-02T16:44:12.458Z,77.88
2023-01-02T16:46:43.288Z,77.84
2023-01-02T16:49:17.997Z,77.85
2023-01-02T16:51:50.073Z,77.77
2023-01-02T16:54:20.542Z,77.61
2023-01-02T16:56:51.250Z,77.50
2023-01-02T16:59:22.066Z,77.48
2023-01-02T17:01:51.882Z,77.51
2023-01-02T17:04:26.156Z,77.32
2023-01-02T17:06:55.945Z,77.21
2023-01-02T17:09:25.642Z,77.16
2023-01-02T17:12:01.335Z,76.93
2023-01-02T17:17:18.696Z,76.92
2023-01-02T17:19:48.194Z,76.91
2023-01-02T17:22:17.952Z,77.00
2023-01-02T17:24:47.567Z,76.79
2023-01-02T17:27:25.626Z,76.67
2023-01-02T17:29:55.092Z,76.69
2023-01-02T17:32:24.969Z,76.56
2023-01-02T17:34:54.749Z,76.54
2023-01-02T17:37:24.911Z,76.57
2023-01-02T17:39:54.882Z,76.53
2023-01-02T17:42:24.382Z,76.56
2023-01-02T17:44:53.933Z,76.49
2023-01-02T17:47:58.212Z,76.27
2023-01-02T17:50:13.360Z,76.26
2023-01-02T17:52:43.108Z,76.28
2023-01-02T17:55:13.064Z,76.14
2023-01-02T17:57:42.721Z,76.12
2023-01-02T18:00:15.280Z,76.11
2023-01-02T18:02:45.244Z,76.19
2023-01-02T18:05:15.030Z,76.34
2023-01-02T18:07:44.615Z,76.27
2023-01-02T18:10:19.399Z,76.46
2023-01-02T18:12:51.606Z,76.45
2023-01-02T18:15:25.521Z,76.45
2023-01-02T18:17:55.920Z,76.58
2023-01-02T18:20:25.827Z,76.51
2023-01-02T18:23:00.850Z,76.49
2023-01-02T18:25:30.703Z,76.65
2023-01-02T18:28:02.661Z,76.58
2023-01-02T18:30:41.146Z,76.49
2023-01-02T18:33:15.099Z,76.57
2023-01-02T18:36:00.441Z,76.55
2023-01-02T18:38:35.292Z,76.59
2023-01-02T18:41:16.428Z,76.71
2023-01-02T18:43:53.532Z,76.73
2023-01-02T18:47:01.944Z,76.88
2023-01-02T18:49:24.279Z,76.78
2023-01-02T18:52:02.221Z,76.81
2023-01-02T18:54:32.330Z,76.81
2023-01-02T18:57:08.854Z,76.83
2023-01-02T18:59:38.635Z,76.83
2023-01-02T19:02:25.853Z,76.68
2023-01-02T19:04:56.501Z,76.71
2023-01-02T19:07:29.752Z,76.71
2023-01-02T19:10:18.215Z,76.63
2023-01-02T19:13:07.299Z,76.71
2023-01-02T19:15:42.262Z,76.82
2023-01-02T19:18:35.000Z,76.85
2023-01-02T19:21:25.029Z,76.92
2023-01-02T19:23:57.903Z,77.18
2023-01-02T19:26:32.789Z,77.41
2023-01-02T19:29:11.299Z,77.49
2023-01-02T19:31:47.591Z,77.52
2023-01-02T19:34:38.740Z,77.72
2023-01-02T19:37:33.513Z,77.78
2023-01-02T19:40:13.068Z,77.91
2023-01-02T19:43:08.200Z,78.05
2023-01-02T19:45:37.493Z,78.14
2023-01-02T19:48:13.646Z,78.18
2023-01-02T19:50:46.105Z,78.28
2023-01-02T19:53:15.681Z,78.40
2023-01-02T19:55:44.978Z,78.40
2023-01-02T19:58:16.473Z,78.51
2023-01-02T20:00:45.837Z,78.71
2023-01-02T20:03:15.532Z,78.72
2023-01-02T20:05:47.082Z,78.81
2023-01-02T20:08:16.661Z,78.85
2023-01-02T20:10:48.358Z,78.91
2023-01-02T20:13:17.829Z,78.93
2023-01-02T20:15:47.303Z,79.04
2023-01-02T20:18:19.603Z,79.03
2023-01-02T20:20:49.156Z,79.10
2023-01-02T20:23:18.763Z,79.16
2023-01-02T20:25:51.450Z,79.09
2023-01-02T20:28:20.811Z,79.14
2023-01-02T20:30:53.323Z,79.19
2023-01-02T20:33:28.790Z,79.19
2023-01-02T20:36:01.633Z,79.21
2023-01-02T20:38:30.942Z,79.33
2023-01-02T20:41:00.584Z,79.24
2023-01-02T20:43:30.232Z,79.40
2023-01-02T20:45:59.703Z,79.35
2023-01-02T20:48:33.256Z,79.28
2023-01-02T20:51:02.934Z,79.34
2023-01-02T20:53:32.560Z,79.14
2023-01-02T20:56:02.138Z,79.19
2023-01-02T20:58:32.132Z,79.30
2023-01-02T21:01:01.799Z,79.17
2023-01-02T21:03:31.246Z,79.11
2023-01-02T21:06:00.684Z,79.13
2023-01-02T21:08:32.784Z,78.90
2023-01-02T21:11:04.947Z,78.75
2023-01-02T21:13:34.844Z,78.58
2023-01-02T21:16:04.810Z,78.58
2023-01-02T21:18:36.038Z,78.52
2023-01-02T21:21:14.852Z,78.33
2023-01-02T21:23:46.525Z,78.23
2023-01-02T21:26:21.257Z,78.11
2023-01-02T21:28:51.103Z,78.05
2023-01-02T21:31:21.137Z,78.06
2023-01-02T21:33:50.710Z,78.05
2023-01-02T21:36:21.440Z,77.96
2023-01-02T21:38:50.705Z,77.86
2023-01-02T21:41:38.022Z,77.78
2023-01-02T21:44:07.301Z,77.81
2023-01-02T21:46:43.706Z,77.93
2023-01-02T21:49:13.275Z,77.94
2023-01-02T21:51:42.657Z,77.83
2023-01-02T21:54:12.119Z,78.04
2023-01-02T21:56:41.410Z,77.93
2023-01-02T21:59:10.739Z,77.92
2023-01-02T22:01:40.311Z,77.90
2023-01-02T22:04:10.628Z,77.97
2023-01-02T22:07:04.322Z,77.99
2023-01-02T22:09:33.472Z,78.00
2023-01-02T22:12:05.079Z,77.99
2023-01-02T22:14:35.893Z,77.97
2023-01-02T22:17:06.800Z,77.92
2023-01-02T22:19:37.179Z,78.03
2023-01-02T22:22:07.452Z,78.03
2023-01-02T22:24:44.023Z,77.90
2023-01-02T22:27:19.549Z,77.90
2023-01-02T22:30:20.476Z,77.94
2023-01-02T22:32:41.033Z,77.94
2023-01-02T22:35:14.284Z,77.95
2023-01-02T22:37:46.300Z,77.90
2023-01-02T22:40:16.344Z,77.89
2023-01-02T22:43:04.852Z,77.86
2023-01-02T22:45:41.593Z,77.88
2023-01-02T22:48:19.512Z,77.98
2023-01-02T22:50:53.932Z,77.94
2023-01-02T22:53:26.581Z,77.96
2023-01-02T22:55:56.758Z,77.92
2023-01-02T22:58:26.847Z,77.85
2023-01-02T23:01:00.042Z,77.78
2023-01-02T23:03:35.217Z,77.62
2023-01-02T23:06:05.207Z,77.64
2023-01-02T23:08:36.165Z,77.81
2023-01-02T23:11:09.767Z,77.73
2023-01-02T23:13:42.206Z,77.77
2023-01-02T23:16:30.632Z,77.73
2023-01-02T23:19:15.799Z,77.92
2023-01-02T23:21:47.562Z,78.01
2023-01-02T23:24:19.756Z,77.96
2023-01-02T23:26:51.245Z,77.98
2023-01-02T23:29:21.872Z,78.05
2023-01-02T23:31:54.711Z,77.94
2023-01-02T23:34:25.812Z,77.91
2023-01-02T23:36:57.699Z,77.88
2023-01-02T23:39:30.215Z,77.76
2023-01-02T23:42:03.096Z,77.74
2023-01-02T23:44:32.764Z,77.73
2023-01-02T23:47:09.427Z,77.57
2023-01-02T23:49:42.359Z,77.53
2023-01-02T23:52:13.164Z,77.40
2023-01-02T23:54:42.532Z,77.46
2023-01-02T23:57:12.383Z,77.46
2023-01-02T23:59:42.053Z,77.23
